TAF and METAR

Decoding for American and Canadian METARs and TAFs is not fully implemented.

Could not understand the following METAR

KDEN 192053Z 00000KT 10SM FEW080 FEW180 16/M12 A2978 RMK AO2 SLP055 T01611122 56037

TAF for Denver International Airport

KDEN 192009Z 1920/2024 14006KT P6SM FEW080 FEW180 FM200100 16007KT P6SM FEW100 BKN200 FM200400 21008KT P6SM FEW100 BKN200 FM200900 28014G22KT P6SM SCT100 BKN150 FM201400 27023G32KT P6SM SCT090 SCT150 FM202000 30025G35KT P6SM SCT080 BKN150
Report created 19. okt 22:09

between 19. okt 22:00 - 20. okt 02:00

wind 6 knots from SE (140°)
Denver International Airport in United States of America at 1640m

Latest 5 airports